createdAt,value
2022-11-08T00:00:49.886Z,56.86
2022-11-08T00:03:16.383Z,56.25
2022-11-08T00:05:42.885Z,56.86
2022-11-08T00:08:09.369Z,56.94
2022-11-08T00:10:35.825Z,57.15
2022-11-08T00:13:05.757Z,57.04
2022-11-08T00:15:32.215Z,56.81
2022-11-08T00:17:58.676Z,56.60
2022-11-08T00:20:25.172Z,56.65
2022-11-08T00:22:51.615Z,56.75
2022-11-08T00:25:18.089Z,56.49
2022-11-08T00:27:44.541Z,55.88
2022-11-08T00:30:11.133Z,56.25
2022-11-08T00:32:37.567Z,55.90
2022-11-08T00:35:04.271Z,56.57
2022-11-08T00:37:30.712Z,56.30
2022-11-08T00:39:57.186Z,55.90
2022-11-08T00:42:23.654Z,56.59
2022-11-08T00:44:50.092Z,56.12
2022-11-08T00:47:16.562Z,56.06
2022-11-08T00:49:43.097Z,55.48
2022-11-08T00:52:09.559Z,56.02
2022-11-08T00:54:36.020Z,56.42
2022-11-08T00:57:02.468Z,56.18
2022-11-08T00:59:28.950Z,55.68
2022-11-08T01:01:55.434Z,55.71
2022-11-08T01:04:21.946Z,55.52
2022-11-08T01:06:48.416Z,55.11
2022-11-08T01:09:14.995Z,55.64
2022-11-08T01:11:41.466Z,55.35
2022-11-08T01:14:08.773Z,55.03
2022-11-08T01:16:35.239Z,55.51
2022-11-08T01:19:02.178Z,55.90
2022-11-08T01:21:29.546Z,56.02
2022-11-08T01:23:56.786Z,56.07
2022-11-08T01:26:27.496Z,56.27
2022-11-08T01:28:55.497Z,56.29
2022-11-08T01:31:25.853Z,56.46
2022-11-08T01:33:53.123Z,56.77
2022-11-08T01:36:23.338Z,56.35
2022-11-08T01:38:50.577Z,56.62
2022-11-08T01:41:19.594Z,57.06
2022-11-08T01:43:48.802Z,56.39
2022-11-08T01:46:18.078Z,56.15
2022-11-08T01:49:08.880Z,56.62
2022-11-08T01:51:59.931Z,57.05
2022-11-08T01:54:48.279Z,57.11
2022-11-08T01:57:20.760Z,57.72
2022-11-08T01:59:52.737Z,57.63
2022-11-08T02:02:20.167Z,57.57
2022-11-08T02:04:47.526Z,58.10
2022-11-08T02:07:15.754Z,58.04
2022-11-08T02:09:46.188Z,58.06
2022-11-08T02:12:15.482Z,57.75
2022-11-08T02:14:42.776Z,58.17
2022-11-08T02:17:09.758Z,58.79
2022-11-08T02:19:41.227Z,58.77
2022-11-08T02:22:28.886Z,58.87
2022-11-08T02:24:56.258Z,59.05
2022-11-08T02:27:22.708Z,58.81
2022-11-08T02:29:52.808Z,59.13
2022-11-08T02:32:19.673Z,59.47
2022-11-08T02:34:58.974Z,59.33
2022-11-08T02:37:26.865Z,59.28
2022-11-08T02:39:53.352Z,59.08
2022-11-08T02:42:20.888Z,58.90
2022-11-08T02:44:47.695Z,59.44
2022-11-08T02:47:15.070Z,60.12
2022-11-08T02:49:41.738Z,59.90
2022-11-08T02:52:08.548Z,59.67
2022-11-08T02:54:35.046Z,59.92
2022-11-08T02:57:01.516Z,59.80
2022-11-08T02:59:27.965Z,59.66
2022-11-08T03:01:54.520Z,59.75
2022-11-08T03:04:21.206Z,59.91
2022-11-08T03:06:47.676Z,59.68
2022-11-08T03:09:14.105Z,59.94
2022-11-08T03:11:40.564Z,60.29
2022-11-08T03:14:07.048Z,60.87
2022-11-08T03:16:33.490Z,61.10
2022-11-08T03:19:00.180Z,61.23
2022-11-08T03:21:26.643Z,61.30
2022-11-08T03:23:53.115Z,61.29
2022-11-08T03:26:19.548Z,61.31
2022-11-08T03:28:45.986Z,61.32
2022-11-08T03:31:12.442Z,61.33
2022-11-08T03:33:38.911Z,61.52
2022-11-08T03:36:05.981Z,61.46
2022-11-08T03:38:32.408Z,61.37
2022-11-08T03:40:58.870Z,61.72
2022-11-08T03:43:26.703Z,61.66
2022-11-08T03:45:53.146Z,61.89
2022-11-08T03:48:19.960Z,61.58
2022-11-08T03:50:46.759Z,62.73
2022-11-08T03:53:13.217Z,62.99
2022-11-08T03:55:39.687Z,62.79
2022-11-08T03:58:06.162Z,62.36
2022-11-08T04:00:32.618Z,62.41
2022-11-08T04:03:03.693Z,62.75
2022-11-08T04:05:31.542Z,62.77
2022-11-08T04:07:59.153Z,62.73
2022-11-08T04:10:25.596Z,62.97
2022-11-08T04:13:04.193Z,63.05
2022-11-08T04:15:41.646Z,62.72
2022-11-08T04:18:08.073Z,63.89
2022-11-08T04:20:45.200Z,63.07
2022-11-08T04:23:11.741Z,62.95
2022-11-08T04:25:38.271Z,63.05
2022-11-08T04:28:05.076Z,63.25
2022-11-08T04:30:32.720Z,63.16
2022-11-08T04:33:04.923Z,63.71
2022-11-08T04:35:31.796Z,63.69
2022-11-08T04:38:02.104Z,63.31
2022-11-08T04:40:30.971Z,63.40
2022-11-08T04:42:57.409Z,63.47
2022-11-08T04:45:23.894Z,63.66
2022-11-08T04:47:50.374Z,63.96
2022-11-08T04:50:16.843Z,63.40
2022-11-08T04:52:43.358Z,63.35
2022-11-08T04:55:09.809Z,63.17
2022-11-08T04:57:36.309Z,63.57
2022-11-08T05:00:03.276Z,63.01
2022-11-08T05:02:29.865Z,63.72
2022-11-08T05:04:56.369Z,63.50
2022-11-08T05:07:24.388Z,64.08
2022-11-08T05:09:50.922Z,64.07
2022-11-08T05:12:17.378Z,64.25
2022-11-08T05:14:43.848Z,64.56
2022-11-08T05:17:10.286Z,64.44
2022-11-08T05:19:36.714Z,64.08
2022-11-08T05:22:03.207Z,64.66
2022-11-08T05:24:29.660Z,65.10
2022-11-08T05:26:56.135Z,65.26
2022-11-08T05:29:22.577Z,65.40
2022-11-08T05:31:49.023Z,64.97
2022-11-08T05:34:15.573Z,65.64
2022-11-08T05:36:42.025Z,65.65
2022-11-08T05:39:08.466Z,65.73
2022-11-08T05:41:34.967Z,65.75
2022-11-08T05:44:01.414Z,65.93
2022-11-08T05:46:27.861Z,66.15
2022-11-08T05:48:54.590Z,66.19
2022-11-08T05:51:21.050Z,65.74
2022-11-08T05:53:47.651Z,65.83
2022-11-08T05:56:14.539Z,66.43
2022-11-08T05:58:40.982Z,67.01
2022-11-08T06:01:13.725Z,67.17
2022-11-08T06:03:40.579Z,66.84
2022-11-08T06:06:10.333Z,66.97
2022-11-08T06:08:37.608Z,66.49
2022-11-08T06:11:06.246Z,66.79
2022-11-08T06:13:34.302Z,66.93
2022-11-08T06:16:07.174Z,67.10
2022-11-08T06:18:35.190Z,67.26
2022-11-08T06:21:04.178Z,67.42
2022-11-08T06:23:31.595Z,67.64
2022-11-08T06:25:58.568Z,68.06
2022-11-08T06:28:25.020Z,68.48
2022-11-08T06:30:51.682Z,67.96
2022-11-08T06:33:20.343Z,68.63
2022-11-08T06:35:47.548Z,68.08
2022-11-08T06:38:13.994Z,68.07
2022-11-08T06:40:40.559Z,68.05
2022-11-08T06:43:07.002Z,67.74
2022-11-08T06:45:33.467Z,67.41
2022-11-08T06:48:01.916Z,68.07
2022-11-08T06:50:30.273Z,69.09
2022-11-08T06:53:04.829Z,69.35
2022-11-08T06:55:32.732Z,69.24
2022-11-08T06:57:59.951Z,70.00
2022-11-08T07:00:26.701Z,69.91
2022-11-08T07:02:57.912Z,69.31
2022-11-08T07:05:25.277Z,69.48
2022-11-08T07:07:51.906Z,69.93
2022-11-08T07:10:19.988Z,69.50
2022-11-08T07:12:47.312Z,69.32
2022-11-08T07:15:14.650Z,69.10
2022-11-08T07:17:41.179Z,69.16
2022-11-08T07:20:08.356Z,68.90
2022-11-08T07:22:35.209Z,68.04
2022-11-08T07:25:01.675Z,68.18
2022-11-08T07:27:28.656Z,67.83
2022-11-08T07:29:55.113Z,68.05
2022-11-08T07:32:21.581Z,67.86
2022-11-08T07:34:48.107Z,68.23
2022-11-08T07:37:14.683Z,67.54
2022-11-08T07:39:41.123Z,67.23
2022-11-08T07:42:07.592Z,67.84
2022-11-08T07:44:34.060Z,68.58
2022-11-08T07:47:00.529Z,69.07
2022-11-08T07:49:27.037Z,68.46
2022-11-08T07:51:53.563Z,68.44
2022-11-08T07:54:20.032Z,67.62
2022-11-08T07:56:46.511Z,67.68
2022-11-08T07:59:13.034Z,67.99
2022-11-08T08:01:39.661Z,67.31
2022-11-08T08:04:06.130Z,67.74
2022-11-08T08:06:32.581Z,67.66
2022-11-08T08:08:59.090Z,67.95
2022-11-08T08:11:30.840Z,68.04
2022-11-08T08:13:59.926Z,67.20
2022-11-08T08:16:26.373Z,68.31
2022-11-08T08:18:56.395Z,67.85
2022-11-08T08:21:23.405Z,68.39
2022-11-08T08:23:49.845Z,68.02
2022-11-08T08:26:16.328Z,68.11
2022-11-08T08:28:42.828Z,68.16
2022-11-08T08:31:09.318Z,67.11
2022-11-08T08:33:36.175Z,67.92
2022-11-08T08:36:03.461Z,67.64
2022-11-08T08:38:31.692Z,67.10
2022-11-08T08:40:59.057Z,66.31
2022-11-08T08:43:26.246Z,66.21
2022-11-08T08:45:53.047Z,65.41
2022-11-08T08:48:20.267Z,66.10
2022-11-08T08:50:49.477Z,65.00
2022-11-08T08:53:16.629Z,64.91
2022-11-08T08:55:43.407Z,65.30
2022-11-08T08:58:10.633Z,64.71
2022-11-08T09:03:23.928Z,64.45
2022-11-08T09:05:50.454Z,64.17
2022-11-08T09:08:16.945Z,63.91
2022-11-08T09:10:43.517Z,64.66
2022-11-08T09:13:10.428Z,63.62
2022-11-08T09:15:37.263Z,63.41
2022-11-08T09:18:03.854Z,63.27
2022-11-08T09:20:30.351Z,63.71
2022-11-08T09:23:01.654Z,64.00
2022-11-08T09:25:28.329Z,63.13
2022-11-08T09:27:55.065Z,63.04
2022-11-08T09:30:21.538Z,63.38
2022-11-08T09:33:03.944Z,62.72
2022-11-08T09:35:30.666Z,61.77
2022-11-08T09:37:57.981Z,61.68
2022-11-08T09:40:36.741Z,61.92
2022-11-08T09:43:29.827Z,60.30
2022-11-08T09:45:56.382Z,60.08
2022-11-08T09:48:32.108Z,61.78
2022-11-08T09:51:16.324Z,61.65
2022-11-08T09:53:54.881Z,61.04
2022-11-08T09:56:21.279Z,60.58
2022-11-08T09:58:52.096Z,60.88
2022-11-08T10:01:21.179Z,60.70
2022-11-08T10:03:55.294Z,60.52
2022-11-08T10:06:43.658Z,60.63
2022-11-08T10:09:28.445Z,59.67
2022-11-08T10:12:03.966Z,59.50
2022-11-08T10:14:54.392Z,60.14
2022-11-08T10:18:09.877Z,58.94
2022-11-08T10:21:04.931Z,58.03
2022-11-08T10:23:31.326Z,57.85
2022-11-08T10:26:09.755Z,56.95
2022-11-08T10:28:44.579Z,55.85
2022-11-08T10:31:13.479Z,53.61
2022-11-08T10:33:46.647Z,52.16
2022-11-08T10:36:26.567Z,51.67
2022-11-08T10:39:08.294Z,50.62
2022-11-08T10:41:51.311Z,48.71
2022-11-08T10:44:21.909Z,48.00
2022-11-08T10:47:00.160Z,47.61
2022-11-08T10:49:31.498Z,46.50
2022-11-08T10:52:14.426Z,46.26
2022-11-08T10:54:53.090Z,46.02
2022-11-08T10:57:36.959Z,46.16
2022-11-08T11:00:21.452Z,45.53
2022-11-08T11:03:11.657Z,44.75
2022-11-08T11:05:42.149Z,44.41
2022-11-08T11:08:08.592Z,43.51
2022-11-08T11:10:46.770Z,42.94
2022-11-08T11:13:19.374Z,43.23
2022-11-08T11:15:57.747Z,43.63
2022-11-08T11:18:48.602Z,43.19
2022-11-08T11:21:18.737Z,42.13
2022-11-08T11:23:49.285Z,41.51
2022-11-08T11:26:35.688Z,40.35
2022-11-08T11:29:04.829Z,39.41
2022-11-08T11:31:40.980Z,38.51
2022-11-08T11:34:31.825Z,38.76
2022-11-08T11:37:14.429Z,38.78
2022-11-08T11:39:43.148Z,39.93
2022-11-08T11:42:44.365Z,38.87
2022-11-08T11:45:10.666Z,38.72
2022-11-08T11:47:45.694Z,39.22
2022-11-08T11:50:22.892Z,39.80
2022-11-08T11:52:49.510Z,39.33
2022-11-08T11:55:17.711Z,38.16
2022-11-08T11:58:09.876Z,39.23
2022-11-08T12:00:48.337Z,38.97
2022-11-08T12:03:36.409Z,37.78
2022-11-08T12:06:23.312Z,38.45
2022-11-08T12:09:05.316Z,38.65
2022-11-08T12:11:46.428Z,39.66
2022-11-08T12:14:24.545Z,38.83
2022-11-08T12:17:14.814Z,38.54
2022-11-08T12:19:50.988Z,37.89
2022-11-08T12:22:33.379Z,38.01
2022-11-08T12:25:25.586Z,37.39
2022-11-08T12:28:36.366Z,36.44
2022-11-08T12:31:20.055Z,36.73
2022-11-08T12:33:52.701Z,35.27
2022-11-08T12:36:58.909Z,35.46
2022-11-08T12:39:32.996Z,34.54
2022-11-08T12:42:18.115Z,35.63
2022-11-08T12:45:17.373Z,34.51
2022-11-08T12:48:26.911Z,34.09
2022-11-08T12:51:09.156Z,34.72
2022-11-08T12:53:44.870Z,34.28
2022-11-08T12:56:17.341Z,35.04
2022-11-08T12:58:54.815Z,32.93
2022-11-08T13:01:23.169Z,33.31
2022-11-08T13:04:18.963Z,32.25
2022-11-08T13:06:54.541Z,31.89
2022-11-08T13:09:34.696Z,31.67
2022-11-08T13:12:28.457Z,32.69
2022-11-08T13:14:55.891Z,32.98
2022-11-08T13:17:24.996Z,31.26
2022-11-08T13:19:51.392Z,31.18
2022-11-08T13:22:29.715Z,31.43
2022-11-08T13:25:00.021Z,31.16
2022-11-08T13:27:37.155Z,30.68
2022-11-08T13:30:15.426Z,30.42
2022-11-08T13:32:58.448Z,31.49
2022-11-08T13:35:50.363Z,30.26
2022-11-08T13:38:48.046Z,30.50
2022-11-08T13:41:21.321Z,29.97
2022-11-08T13:43:49.489Z,29.63
2022-11-08T13:46:21.794Z,28.92
2022-11-08T13:48:57.441Z,29.16
2022-11-08T13:51:29.393Z,28.87
2022-11-08T13:54:01.478Z,28.98
2022-11-08T13:56:47.438Z,28.29
2022-11-08T13:59:29.140Z,29.14
2022-11-08T14:01:57.693Z,28.30
2022-11-08T14:04:30.495Z,27.64
2022-11-08T14:07:03.841Z,27.04
2022-11-08T14:09:48.728Z,26.96
2022-11-08T14:12:31.526Z,26.77
2022-11-08T14:15:25.758Z,26.38
2022-11-08T14:18:05.665Z,25.63
2022-11-08T14:20:59.032Z,26.39
2022-11-08T14:23:29.775Z,26.51
2022-11-08T14:26:13.000Z,26.53
2022-11-08T14:28:42.253Z,26.79
2022-11-08T14:31:28.180Z,27.19
2022-11-08T14:33:55.933Z,27.08
2022-11-08T14:36:24.935Z,27.53
2022-11-08T14:39:17.308Z,27.86
2022-11-08T14:41:52.787Z,28.57
2022-11-08T14:44:19.678Z,29.12
2022-11-08T14:46:47.842Z,29.76
2022-11-08T14:49:14.234Z,30.33
2022-11-08T14:51:41.887Z,31.21
2022-11-08T14:54:21.562Z,31.34
2022-11-08T14:56:48.356Z,31.88
2022-11-08T14:59:14.921Z,32.18
2022-11-08T15:01:46.814Z,32.85
2022-11-08T15:04:17.961Z,33.13
2022-11-08T15:06:53.409Z,33.38
2022-11-08T15:09:40.152Z,32.84
2022-11-08T15:12:17.245Z,33.75
2022-11-08T15:14:53.266Z,33.02
2022-11-08T15:17:34.835Z,32.08
2022-11-08T15:20:20.890Z,31.95
2022-11-08T15:22:50.888Z,31.91
2022-11-08T15:25:33.723Z,31.82
2022-11-08T15:28:22.301Z,31.76
2022-11-08T15:31:00.359Z,32.16
2022-11-08T15:33:39.338Z,32.35
2022-11-08T15:36:13.010Z,33.24
2022-11-08T15:38:42.663Z,34.31
2022-11-08T15:41:32.723Z,35.98
2022-11-08T15:44:26.308Z,37.23
2022-11-08T15:46:54.888Z,37.53
2022-11-08T15:49:24.521Z,37.77
2022-11-08T15:51:54.263Z,38.46
2022-11-08T15:54:22.840Z,38.77
2022-11-08T15:56:51.893Z,39.32
2022-11-08T15:59:22.402Z,39.94
2022-11-08T16:01:56.231Z,40.65
2022-11-08T16:04:23.487Z,41.14
2022-11-08T16:06:50.155Z,41.09
2022-11-08T16:09:16.680Z,41.38
2022-11-08T16:11:44.472Z,41.19
2022-11-08T16:14:28.876Z,41.96
2022-11-08T16:16:55.350Z,42.33
2022-11-08T16:19:24.694Z,43.84
2022-11-08T16:21:52.297Z,43.61
2022-11-08T16:24:19.320Z,42.97
2022-11-08T16:26:46.941Z,43.31
2022-11-08T16:29:22.725Z,43.37
2022-11-08T16:31:51.158Z,44.96
2022-11-08T16:34:18.124Z,44.92
2022-11-08T16:36:47.657Z,44.21
2022-11-08T16:39:17.330Z,44.29
2022-11-08T16:41:44.022Z,44.66
2022-11-08T16:44:11.510Z,44.72
2022-11-08T16:46:39.135Z,46.24
2022-11-08T16:49:07.036Z,45.58
2022-11-08T16:51:34.087Z,45.31
2022-11-08T16:54:02.215Z,45.18
2022-11-08T16:56:28.662Z,45.61
2022-11-08T16:58:55.155Z,46.09
2022-11-08T17:01:32.182Z,44.60
2022-11-08T17:03:58.697Z,46.22
2022-11-08T17:06:25.225Z,45.82
2022-11-08T17:08:51.726Z,45.99
2022-11-08T17:11:21.484Z,46.78
2022-11-08T17:13:48.276Z,46.16
2022-11-08T17:16:16.049Z,46.57
2022-11-08T17:18:42.857Z,45.94
2022-11-08T17:21:43.040Z,46.31
2022-11-08T17:23:59.897Z,46.31
2022-11-08T17:26:26.352Z,46.58
2022-11-08T17:28:55.637Z,46.86
2022-11-08T17:31:22.103Z,47.22
2022-11-08T17:33:48.575Z,47.01
2022-11-08T17:36:15.054Z,48.21
2022-11-08T17:38:42.217Z,48.23
2022-11-08T17:41:14.312Z,48.61
2022-11-08T17:43:42.865Z,48.45
2022-11-08T17:46:10.756Z,48.46
2022-11-08T17:48:38.553Z,49.79
2022-11-08T17:51:05.546Z,49.95
2022-11-08T17:53:33.178Z,48.61
2022-11-08T17:56:02.832Z,49.13
2022-11-08T17:58:29.665Z,48.90
2022-11-08T18:00:58.295Z,49.51
2022-11-08T18:03:26.000Z,48.48
2022-11-08T18:06:07.718Z,49.78
2022-11-08T18:08:35.025Z,48.81
2022-11-08T18:11:02.530Z,48.11
2022-11-08T18:13:29.917Z,47.69
2022-11-08T18:16:06.530Z,47.35
2022-11-08T18:18:33.030Z,46.45
2022-11-08T18:20:59.460Z,48.54
2022-11-08T18:23:26.038Z,47.13
2022-11-08T18:25:52.515Z,46.35
2022-11-08T18:28:19.039Z,46.90
2022-11-08T18:30:48.164Z,46.54
2022-11-08T18:33:16.571Z,47.23
2022-11-08T18:35:43.810Z,47.41
2022-11-08T18:38:11.968Z,47.99
2022-11-08T18:40:39.866Z,47.93
2022-11-08T18:43:06.908Z,48.41
2022-11-08T18:45:33.438Z,48.21
2022-11-08T18:47:59.955Z,48.04
2022-11-08T18:50:26.453Z,47.80
2022-11-08T18:52:52.878Z,47.97
2022-11-08T18:55:19.332Z,48.75
2022-11-08T18:57:45.791Z,48.78
2022-11-08T19:00:12.511Z,48.26
2022-11-08T19:02:39.009Z,48.88
2022-11-08T19:05:05.570Z,48.66
2022-11-08T19:07:32.047Z,49.15
2022-11-08T19:09:58.512Z,49.36
2022-11-08T19:12:27.114Z,50.49
2022-11-08T19:14:53.576Z,50.15
2022-11-08T19:17:20.051Z,50.19
2022-11-08T19:19:46.571Z,50.04
2022-11-08T19:22:13.026Z,50.54
2022-11-08T19:24:39.512Z,50.59
2022-11-08T19:27:05.978Z,50.65
2022-11-08T19:29:32.790Z,50.76
2022-11-08T19:31:59.536Z,50.93
2022-11-08T19:34:26.015Z,51.07
2022-11-08T19:36:55.791Z,52.09
2022-11-08T19:39:22.815Z,51.85
2022-11-08T19:41:49.292Z,51.37
2022-11-08T19:44:15.801Z,51.39
2022-11-08T19:46:42.249Z,51.36
2022-11-08T19:49:10.050Z,52.03
2022-11-08T19:51:36.515Z,51.18
2022-11-08T19:54:06.984Z,50.83
2022-11-08T19:57:03.117Z,51.45
2022-11-08T19:59:21.825Z,51.69
2022-11-08T20:01:48.476Z,51.80
2022-11-08T20:04:15.286Z,52.33
2022-11-08T20:06:41.900Z,52.69
2022-11-08T20:09:08.437Z,52.34
2022-11-08T20:11:38.038Z,53.80
2022-11-08T20:14:07.264Z,53.73
2022-11-08T20:16:37.649Z,53.93
2022-11-08T20:19:07.623Z,53.67
2022-11-08T20:21:34.132Z,54.27
2022-11-08T20:24:00.707Z,53.90
2022-11-08T20:26:27.537Z,53.92
2022-11-08T20:28:56.922Z,53.79
2022-11-08T20:31:25.344Z,54.64
2022-11-08T20:33:53.515Z,55.57
2022-11-08T20:36:22.687Z,54.89
2022-11-08T20:38:50.142Z,54.46
2022-11-08T20:41:18.089Z,55.18
2022-11-08T20:43:46.633Z,54.81
2022-11-08T20:46:19.100Z,55.67
2022-11-08T20:48:50.796Z,55.62
2022-11-08T20:51:19.572Z,55.54
2022-11-08T20:53:47.504Z,55.08
2022-11-08T20:56:16.632Z,55.08
2022-11-08T20:58:44.783Z,55.77
2022-11-08T21:01:14.215Z,55.69
2022-11-08T21:03:42.061Z,55.55
2022-11-08T21:06:11.479Z,55.75
2022-11-08T21:11:25.958Z,55.35
2022-11-08T21:13:52.425Z,54.64
2022-11-08T21:19:06.310Z,56.06
2022-11-08T21:21:32.818Z,55.69
2022-11-08T21:23:59.258Z,56.14
2022-11-08T21:26:25.708Z,55.90
2022-11-08T21:28:52.185Z,55.75
2022-11-08T21:31:18.683Z,56.20
2022-11-08T21:33:45.129Z,56.25
2022-11-08T21:36:11.589Z,56.61
2022-11-08T21:38:39.523Z,56.40
2022-11-08T21:41:08.826Z,55.87
2022-11-08T21:43:37.557Z,56.01
2022-11-08T21:46:22.393Z,54.94
2022-11-08T21:48:57.840Z,54.65
2022-11-08T21:51:25.405Z,53.19
2022-11-08T21:53:56.904Z,52.93
2022-11-08T21:56:25.473Z,52.82
2022-11-08T21:58:52.548Z,53.58
2022-11-08T22:01:19.835Z,54.32
2022-11-08T22:03:46.918Z,54.69
2022-11-08T22:06:13.387Z,55.63
2022-11-08T22:08:39.902Z,55.50
2022-11-08T22:11:06.377Z,54.89
2022-11-08T22:13:32.840Z,54.36
2022-11-08T22:15:59.431Z,54.76
2022-11-08T22:18:43.523Z,54.36
2022-11-08T22:21:12.282Z,53.92
2022-11-08T22:23:38.789Z,54.11
2022-11-08T22:26:05.302Z,54.35
2022-11-08T22:28:32.042Z,53.28
2022-11-08T22:30:58.494Z,53.00
2022-11-08T22:33:24.950Z,52.33
2022-11-08T22:35:51.411Z,52.05
2022-11-08T22:38:18.034Z,50.31
2022-11-08T22:40:46.197Z,50.05
2022-11-08T22:43:13.153Z,50.37
2022-11-08T22:45:41.702Z,50.56
2022-11-08T22:48:10.057Z,47.78
2022-11-08T22:50:37.611Z,47.64
2022-11-08T22:53:04.693Z,48.54
2022-11-08T22:55:31.175Z,46.53
2022-11-08T22:57:57.640Z,48.95
2022-11-08T23:00:24.216Z,46.08
2022-11-08T23:02:50.706Z,46.54
2022-11-08T23:05:17.176Z,46.76
2022-11-08T23:07:43.635Z,46.63
2022-11-08T23:10:10.828Z,47.15
2022-11-08T23:12:37.431Z,46.83
2022-11-08T23:15:04.140Z,47.20
2022-11-08T23:17:30.603Z,47.07
2022-11-08T23:19:57.061Z,46.57
2022-11-08T23:22:23.649Z,47.08
2022-11-08T23:24:50.353Z,45.55
2022-11-08T23:27:19.002Z,45.14
2022-11-08T23:29:45.993Z,44.02
2022-11-08T23:32:12.442Z,48.79
2022-11-08T23:34:38.871Z,47.88
2022-11-08T23:37:05.329Z,46.59
2022-11-08T23:39:31.803Z,48.48
2022-11-08T23:41:58.263Z,47.63
2022-11-08T23:44:24.701Z,48.53
2022-11-08T23:47:00.002Z,47.95
2022-11-08T23:49:27.445Z,49.72
2022-11-08T23:51:54.519Z,48.74
2022-11-08T23:54:21.489Z,46.70
2022-11-08T23:56:48.049Z,46.80
2022-11-08T23:59:15.590Z,47.07
